Time;durP1;ratioP1;P1;durP2;ratioP2;P2;SDS_P1;SDS_P2;PMS_P1;PMS_P2;Temp;Humidity;BMP_temperature;BMP_pressure;BME280_temperature;BME280_humidity;BME280_pressure;Samples;Min_cycle;Max_cycle;Signal;HPM_P1;HPM_P2
2021/04/13 00:02:13;;;;;;;6.45;5.15;;;;;;;;;;5032161;28;20361;-84
2021/04/13 00:04:39;;;;;;;6.63;5.10;;;;;;;;;;5032225;28;20392;-84
2021/04/13 00:07:05;;;;;;;5.45;4.95;;;;;;;;;;5030810;28;20775;-84
2021/04/13 00:09:32;;;;;;;6.88;5.38;;;;;;;;;;5030592;28;20404;-84
2021/04/13 00:12:04;;;;;;;5.45;4.90;;;;;;;;;;5032163;28;20373;-84
2021/04/13 00:14:33;;;;;;;6.75;5.40;;;;;;;;;;5030926;28;20768;-85
2021/04/13 00:17:02;;;;;;;6.53;5.20;;;;;;;;;;5032368;28;20405;-85
2021/04/13 00:19:30;;;;;;;6.00;5.17;;;;;;;;;;5032278;28;20373;-85
2021/04/13 00:21:56;;;;;;;7.15;5.80;;;;;;;;;;5032090;28;20453;-85
2021/04/13 00:24:24;;;;;;;7.53;5.10;;;;;;;;;;5032570;28;20389;-84
2021/04/13 00:26:52;;;;;;;6.53;5.15;;;;;;;;;;5035123;28;20453;-84
2021/04/13 00:29:20;;;;;;;5.88;4.88;;;;;;;;;;5035848;28;20863;-86
2021/04/13 00:31:48;;;;;;;7.63;5.70;;;;;;;;;;5034863;28;20396;-84
2021/04/13 00:34:22;;;;;;;6.03;5.43;;;;;;;;;;5033318;28;20393;-84
2021/04/13 00:36:50;;;;;;;6.88;5.72;;;;;;;;;;5032050;28;20423;-84
2021/04/13 00:39:18;;;;;;;6.32;5.50;;;;;;;;;;5030824;28;20366;-84
2021/04/13 00:41:45;;;;;;;5.60;5.00;;;;;;;;;;5030417;28;20906;-84
2021/04/13 00:44:13;;;;;;;6.15;5.55;;;;;;;;;;5029988;28;20388;-84
2021/04/13 00:46:42;;;;;;;5.85;5.20;;;;;;;;;;5030066;28;20894;-85
2021/04/13 00:49:09;;;;;;;5.68;5.18;;;;;;;;;;5030000;28;20381;-84
2021/04/13 00:51:37;;;;;;;6.68;5.35;;;;;;;;;;5030150;28;20740;-84
2021/04/13 00:54:06;;;;;;;6.00;5.40;;;;;;;;;;5029913;28;20408;-85
2021/04/13 00:56:32;;;;;;;6.90;5.88;;;;;;;;;;5029807;28;20401;-84
2021/04/13 00:59:00;;;;;;;8.18;5.97;;;;;;;;;;5030823;28;20357;-85
2021/04/13 01:01:34;;;;;;;6.63;5.95;;;;;;;;;;5030809;28;20362;-85
2021/04/13 01:04:02;;;;;;;6.85;6.03;;;;;;;;;;5029816;28;20414;-86
2021/04/13 01:06:30;;;;;;;6.60;5.90;;;;;;;;;;5029696;28;20393;-86
2021/04/13 01:09:15;;;;;;;10.15;6.70;;;;;;;;;;5030772;28;20412;-84
2021/04/13 01:11:43;;;;;;;8.02;7.10;;;;;;;;;;5029469;28;20415;-86
2021/04/13 01:14:09;;;;;;;8.52;6.90;;;;;;;;;;5029377;28;20464;-84
2021/04/13 01:16:40;;;;;;;7.75;6.95;;;;;;;;;;5030703;28;20362;-85
2021/04/13 01:19:35;;;;;;;8.65;6.72;;;;;;;;;;5029958;28;20413;-83
2021/04/13 01:22:10;;;;;;;8.48;7.15;;;;;;;;;;5025934;28;20840;-84
2021/04/13 01:24:39;;;;;;;8.67;7.07;;;;;;;;;;5029680;28;20382;-84
2021/04/13 01:27:10;;;;;;;7.07;6.38;;;;;;;;;;5030333;28;20373;-84
2021/04/13 01:29:36;;;;;;;7.13;6.43;;;;;;;;;;5030593;28;20377;-84
2021/04/13 01:32:03;;;;;;;7.47;6.67;;;;;;;;;;5029349;28;20370;-86
2021/04/13 01:34:38;;;;;;;7.65;6.63;;;;;;;;;;5029247;28;20404;-84
2021/04/13 01:40:21;;;;;;;8.00;7.07;;;;;;;;;;5009073;28;20381;-84
2021/04/13 01:42:49;;;;;;;6.85;6.18;;;;;;;;;;5030561;28;20366;-85
2021/04/13 01:45:17;;;;;;;7.32;6.63;;;;;;;;;;5029141;28;20362;-85
2021/04/13 01:47:45;;;;;;;8.63;7.57;;;;;;;;;;5030235;28;20378;-85
2021/04/13 01:50:19;;;;;;;9.07;8.18;;;;;;;;;;5030646;28;20723;-85
2021/04/13 01:52:47;;;;;;;9.23;7.68;;;;;;;;;;5030410;28;20370;-86
2021/04/13 01:55:13;;;;;;;9.25;8.35;;;;;;;;;;5032890;28;20397;-85
2021/04/13 01:57:42;;;;;;;10.20;9.13;;;;;;;;;;5034519;28;20381;-85
2021/04/13 02:00:14;;;;;;;9.50;8.50;;;;;;;;;;5033573;28;20878;-84
2021/04/13 02:02:44;;;;;;;10.27;9.13;;;;;;;;;;5034668;28;20779;-84
2021/04/13 02:05:13;;;;;;;10.75;9.65;;;;;;;;;;5034630;28;20361;-84
2021/04/13 02:10:28;;;;;;;11.55;10.23;;;;;;;;;;5034448;28;20415;-86
2021/04/13 02:12:57;;;;;;;12.43;10.82;;;;;;;;;;5049488;28;20388;-86
2021/04/13 02:15:23;;;;;;;12.18;10.95;;;;;;;;;;5034219;28;20361;-85
2021/04/13 02:17:53;;;;;;;12.15;11.05;;;;;;;;;;5034135;28;20381;-85
2021/04/13 02:20:21;;;;;;;12.90;11.60;;;;;;;;;;5034194;28;20361;-84
2021/04/13 02:22:48;;;;;;;13.85;11.95;;;;;;;;;;5034414;28;20445;-86
2021/04/13 02:25:16;;;;;;;13.50;12.15;;;;;;;;;;5049643;28;20370;-86
2021/04/13 02:27:43;;;;;;;13.73;12.32;;;;;;;;;;5034062;28;20373;-86
2021/04/13 02:30:12;;;;;;;15.52;12.82;;;;;;;;;;5049275;28;20882;-86
2021/04/13 02:32:42;;;;;;;14.27;12.77;;;;;;;;;;5033731;28;20428;-87
2021/04/13 02:35:15;;;;;;;14.52;13.02;;;;;;;;;;5033540;28;20471;-86
2021/04/13 02:37:44;;;;;;;13.35;12.05;;;;;;;;;;5048866;28;20377;-85
2021/04/13 02:40:14;;;;;;;15.15;13.50;;;;;;;;;;5033353;28;20358;-85
2021/04/13 02:42:48;;;;;;;15.05;13.55;;;;;;;;;;5048697;28;20460;-84
2021/04/13 02:45:23;;;;;;;15.85;13.25;;;;;;;;;;5033826;28;20445;-84
2021/04/13 02:47:50;;;;;;;14.73;13.32;;;;;;;;;;5033238;28;20369;-84
2021/04/13 02:50:19;;;;;;;15.10;13.50;;;;;;;;;;5048469;28;20390;-86
2021/04/13 02:52:48;;;;;;;15.82;14.18;;;;;;;;;;5048338;28;20739;-84
2021/04/13 02:55:19;;;;;;;15.77;14.18;;;;;;;;;;5033541;28;20361;-86
2021/04/13 02:57:45;;;;;;;15.98;13.60;;;;;;;;;;5033281;28;20424;-87
2021/04/13 03:00:32;;;;;;;15.55;13.98;;;;;;;;;;5033400;28;20366;-85
2021/04/13 03:03:02;;;;;;;15.00;13.40;;;;;;;;;;5032760;28;20374;-85
2021/04/13 03:05:29;;;;;;;16.67;14.98;;;;;;;;;;5032481;28;20369;-85
2021/04/13 03:07:59;;;;;;;15.80;14.10;;;;;;;;;;5032921;28;20365;-85
2021/04/13 03:10:28;;;;;;;17.23;14.57;;;;;;;;;;5033008;28;20382;-86
2021/04/13 03:12:55;;;;;;;16.95;15.00;;;;;;;;;;5032828;28;20370;-85
2021/04/13 03:15:26;;;;;;;16.48;14.70;;;;;;;;;;5048227;28;20851;-84
2021/04/13 03:18:01;;;;;;;16.50;14.85;;;;;;;;;;5047861;28;20765;-86
2021/04/13 03:20:29;;;;;;;17.27;14.93;;;;;;;;;;5032876;28;20938;-85
2021/04/13 03:22:57;;;;;;;17.20;15.40;;;;;;;;;;5032691;28;20372;-84
2021/04/13 03:25:25;;;;;;;16.90;15.20;;;;;;;;;;5048328;28;20445;-84
2021/04/13 03:27:51;;;;;;;17.40;15.25;;;;;;;;;;5048298;28;20787;-83
2021/04/13 03:30:25;;;;;;;15.95;14.45;;;;;;;;;;5048142;28;21010;-85
2021/04/13 03:33:04;;;;;;;17.42;15.65;;;;;;;;;;5048170;28;20373;-86
2021/04/13 03:35:31;;;;;;;16.63;14.88;;;;;;;;;;5032839;28;20381;-86
2021/04/13 03:37:57;;;;;;;17.58;14.90;;;;;;;;;;5032315;28;20366;-84
2021/04/13 03:40:26;;;;;;;17.13;15.43;;;;;;;;;;5047782;28;20385;-85
2021/04/13 03:42:59;;;;;;;17.70;14.98;;;;;;;;;;5047606;28;20405;-85
2021/04/13 03:45:27;;;;;;;18.05;16.13;;;;;;;;;;5032360;28;20977;-83
2021/04/13 03:47:53;;;;;;;17.77;15.68;;;;;;;;;;5032122;28;20364;-84
2021/04/13 03:50:29;;;;;;;17.95;15.70;;;;;;;;;;5047401;28;20779;-84
2021/04/13 03:53:21;;;;;;;17.05;15.35;;;;;;;;;;5031879;28;20728;-83
2021/04/13 03:56:01;;;;;;;18.70;16.73;;;;;;;;;;5030349;28;20374;-84
2021/04/13 03:58:31;;;;;;;19.52;16.17;;;;;;;;;;5032128;28;20382;-84
2021/04/13 04:00:57;;;;;;;17.35;15.00;;;;;;;;;;5032400;28;20362;-83
2021/04/13 04:03:23;;;;;;;18.70;16.33;;;;;;;;;;5034081;28;20365;-84
2021/04/13 04:05:55;;;;;;;19.50;17.42;;;;;;;;;;5034450;28;20373;-86
2021/04/13 04:08:28;;;;;;;21.75;16.92;;;;;;;;;;5050950;28;20373;-84
2021/04/13 04:10:54;;;;;;;17.80;15.82;;;;;;;;;;5051280;28;20443;-83
2021/04/13 04:13:26;;;;;;;18.85;16.83;;;;;;;;;;5035140;28;20879;-86
2021/04/13 04:16:06;;;;;;;19.05;16.73;;;;;;;;;;5047697;28;20763;-84
2021/04/13 04:18:38;;;;;;;17.48;15.55;;;;;;;;;;5033551;28;20369;-84
2021/04/13 04:21:14;;;;;;;18.00;15.80;;;;;;;;;;5033961;28;20373;-84
2021/04/13 04:23:42;;;;;;;19.17;17.27;;;;;;;;;;5049256;28;20386;-83
2021/04/13 04:26:08;;;;;;;20.30;18.20;;;;;;;;;;5032581;28;20381;-86
2021/04/13 04:28:35;;;;;;;21.17;18.90;;;;;;;;;;5047238;28;20789;-85
2021/04/13 04:31:20;;;;;;;21.27;18.50;;;;;;;;;;5032645;28;20591;-84
2021/04/13 04:33:46;;;;;;;21.30;19.10;;;;;;;;;;5032049;28;20393;-84
2021/04/13 04:36:30;;;;;;;20.20;18.10;;;;;;;;;;5032334;28;20376;-84
2021/04/13 04:38:56;;;;;;;20.45;18.45;;;;;;;;;;5031752;28;20806;-85
2021/04/13 04:41:41;;;;;;;22.83;19.55;;;;;;;;;;5032100;28;20377;-84
2021/04/13 04:44:08;;;;;;;21.40;19.05;;;;;;;;;;5031510;28;20432;-83
2021/04/13 04:46:42;;;;;;;20.85;18.55;;;;;;;;;;5033118;28;20373;-86
2021/04/13 04:49:09;;;;;;;20.92;18.63;;;;;;;;;;5032581;28;20373;-83
2021/04/13 04:51:36;;;;;;;20.95;18.00;;;;;;;;;;5032907;28;20841;-83
2021/04/13 04:54:02;;;;;;;19.43;17.50;;;;;;;;;;5048645;28;20398;-85
2021/04/13 04:56:28;;;;;;;19.05;17.05;;;;;;;;;;5032626;28;20373;-85
2021/04/13 04:58:54;;;;;;;19.08;17.00;;;;;;;;;;5047361;28;20385;-86
2021/04/13 05:01:20;;;;;;;19.02;16.73;;;;;;;;;;5032556;28;20448;-84
2021/04/13 05:03:46;;;;;;;16.23;14.52;;;;;;;;;;5032258;28;20460;-84
2021/04/13 05:06:13;;;;;;;16.60;14.88;;;;;;;;;;5031927;28;20377;-84
2021/04/13 05:08:39;;;;;;;14.48;12.98;;;;;;;;;;5031672;28;20385;-84
2021/04/13 05:11:05;;;;;;;14.15;12.65;;;;;;;;;;5047242;28;20365;-86
2021/04/13 05:13:31;;;;;;;13.40;12.05;;;;;;;;;;5032046;28;20389;-84
2021/04/13 05:15:58;;;;;;;12.00;10.73;;;;;;;;;;5047166;28;20387;-86
2021/04/13 05:18:24;;;;;;;13.53;12.17;;;;;;;;;;5031871;28;20366;-84
2021/04/13 05:20:50;;;;;;;14.23;12.93;;;;;;;;;;5046975;28;20373;-84
2021/04/13 05:23:17;;;;;;;15.85;14.23;;;;;;;;;;5032047;28;20373;-85
2021/04/13 05:25:43;;;;;;;18.45;16.58;;;;;;;;;;5031729;28;20424;-87
2021/04/13 05:28:09;;;;;;;19.13;17.13;;;;;;;;;;5033112;28;20419;-85
2021/04/13 05:30:35;;;;;;;20.63;18.50;;;;;;;;;;5035389;28;20459;-86
2021/04/13 05:33:02;;;;;;;22.13;19.02;;;;;;;;;;5050476;28;20871;-88
2021/04/13 05:35:28;;;;;;;21.23;19.00;;;;;;;;;;5034934;28;20396;-88
2021/04/13 05:37:56;;;;;;;22.50;20.02;;;;;;;;;;5034886;28;20739;-84
2021/04/13 05:40:26;;;;;;;22.80;19.88;;;;;;;;;;5034547;28;20419;-85
2021/04/13 05:42:56;;;;;;;27.17;20.45;;;;;;;;;;5050504;28;20369;-84
2021/04/13 05:45:23;;;;;;;25.67;20.20;;;;;;;;;;5034975;28;20392;-86
2021/04/13 05:47:49;;;;;;;29.17;21.23;;;;;;;;;;5049988;28;20461;-83
2021/04/13 05:50:19;;;;;;;24.77;19.58;;;;;;;;;;5034553;28;20931;-87
2021/04/13 05:52:45;;;;;;;20.00;17.92;;;;;;;;;;5034856;28;20464;-84
2021/04/13 05:55:11;;;;;;;19.73;17.63;;;;;;;;;;5034507;28;20492;-87
2021/04/13 05:57:37;;;;;;;18.42;15.82;;;;;;;;;;5034404;28;20361;-86
2021/04/13 06:00:04;;;;;;;17.27;15.03;;;;;;;;;;5049379;28;20373;-86
2021/04/13 06:02:31;;;;;;;15.60;13.90;;;;;;;;;;5034394;28;20369;-83
2021/04/13 06:04:59;;;;;;;16.85;15.02;;;;;;;;;;5034252;28;20373;-83
2021/04/13 06:07:25;;;;;;;17.58;13.82;;;;;;;;;;5049683;28;20365;-85
2021/04/13 06:09:51;;;;;;;16.50;13.43;;;;;;;;;;5049267;28;20381;-86
2021/04/13 06:12:17;;;;;;;14.63;13.13;;;;;;;;;;5034157;28;20377;-87
2021/04/13 06:14:43;;;;;;;15.63;13.18;;;;;;;;;;5033718;28;20429;-84
2021/04/13 06:17:12;;;;;;;13.35;11.90;;;;;;;;;;5033986;28;20708;-85
2021/04/13 06:19:38;;;;;;;15.48;12.40;;;;;;;;;;5049252;28;20385;-84
2021/04/13 06:22:04;;;;;;;13.53;12.13;;;;;;;;;;5049540;28;20382;-85
2021/04/13 06:24:31;;;;;;;14.40;12.93;;;;;;;;;;5049165;28;20377;-85
2021/04/13 06:26:57;;;;;;;18.53;13.63;;;;;;;;;;5033704;28;20407;-84
2021/04/13 06:29:23;;;;;;;18.95;13.25;;;;;;;;;;5049001;28;20776;-85
2021/04/13 06:31:49;;;;;;;18.40;13.07;;;;;;;;;;5033569;28;20473;-86
2021/04/13 06:34:15;;;;;;;13.80;11.30;;;;;;;;;;5048951;28;20397;-84
2021/04/13 06:36:41;;;;;;;12.75;11.43;;;;;;;;;;5033837;28;20375;-86
2021/04/13 06:39:08;;;;;;;12.77;11.13;;;;;;;;;;5048147;28;20732;-84
2021/04/13 06:41:43;;;;;;;13.05;10.80;;;;;;;;;;5049019;28;20365;-85
2021/04/13 06:44:15;;;;;;;14.43;10.07;;;;;;;;;;5049324;28;20377;-86
2021/04/13 06:46:52;;;;;;;12.80;10.23;;;;;;;;;;5048706;28;20794;-84
2021/04/13 06:49:36;;;;;;;13.25;11.43;;;;;;;;;;5049243;28;20394;-86
2021/04/13 06:52:02;;;;;;;16.15;12.10;;;;;;;;;;5033715;28;20420;-86
2021/04/13 06:54:47;;;;;;;10.73;9.55;;;;;;;;;;5031718;28;20402;-86
2021/04/13 06:57:13;;;;;;;12.18;9.95;;;;;;;;;;5032452;28;20378;-86
2021/04/13 06:59:51;;;;;;;13.23;10.20;;;;;;;;;;5033343;28;20906;-85
2021/04/13 07:02:37;;;;;;;13.35;10.65;;;;;;;;;;5033338;28;20365;-86
2021/04/13 07:05:06;;;;;;;14.07;9.75;;;;;;;;;;5025660;28;20375;-84
2021/04/13 07:07:35;;;;;;;10.23;8.93;;;;;;;;;;5028421;28;20415;-85
2021/04/13 07:10:06;;;;;;;14.10;9.82;;;;;;;;;;5029414;28;20385;-85
2021/04/13 07:12:51;;;;;;;13.15;11.45;;;;;;;;;;5030445;28;20438;-87
2021/04/13 07:15:32;;;;;;;14.23;11.93;;;;;;;;;;5031370;28;20397;-84
2021/04/13 07:18:07;;;;;;;12.80;10.00;;;;;;;;;;5029470;28;20377;-84
2021/04/13 07:20:36;;;;;;;11.23;9.50;;;;;;;;;;5029427;28;20494;-86
2021/04/13 07:23:06;;;;;;;12.48;8.77;;;;;;;;;;5038765;28;20856;-85
2021/04/13 07:25:33;;;;;;;11.55;8.82;;;;;;;;;;5031203;28;20469;-85
2021/04/13 07:28:01;;;;;;;11.80;8.63;;;;;;;;;;5031145;28;20487;-86
2021/04/13 07:30:29;;;;;;;11.03;8.23;;;;;;;;;;5032852;28;20377;-86
2021/04/13 07:32:56;;;;;;;11.85;8.13;;;;;;;;;;5031932;28;20380;-85
2021/04/13 07:35:23;;;;;;;12.07;8.52;;;;;;;;;;5031466;28;20377;-83
2021/04/13 07:37:51;;;;;;;10.70;8.32;;;;;;;;;;5032041;28;20775;-85
2021/04/13 07:40:17;;;;;;;12.40;8.50;;;;;;;;;;5032156;28;20361;-85
2021/04/13 07:42:47;;;;;;;13.02;7.78;;;;;;;;;;5030837;28;20721;-85
2021/04/13 07:45:16;;;;;;;10.17;7.80;;;;;;;;;;5032421;28;20366;-85
2021/04/13 07:47:45;;;;;;;10.70;7.40;;;;;;;;;;5030993;28;20374;-85
2021/04/13 07:50:12;;;;;;;9.65;7.03;;;;;;;;;;5032840;28;20365;-83
2021/04/13 07:52:56;;;;;;;11.15;7.75;;;;;;;;;;5027694;28;20864;-86
2021/04/13 07:55:32;;;;;;;9.57;7.57;;;;;;;;;;5035116;28;20390;-85
2021/04/13 07:58:21;;;;;;;10.05;7.25;;;;;;;;;;5035134;28;20416;-86
2021/04/13 08:00:51;;;;;;;9.73;6.80;;;;;;;;;;5033192;28;20370;-85
2021/04/13 08:03:22;;;;;;;13.35;7.80;;;;;;;;;;5032647;28;20452;-85
2021/04/13 08:05:50;;;;;;;9.90;6.78;;;;;;;;;;5032363;28;20400;-84
2021/04/13 08:08:21;;;;;;;12.40;6.85;;;;;;;;;;5030454;28;20385;-87
2021/04/13 08:10:48;;;;;;;10.38;7.00;;;;;;;;;;5030993;28;20958;-86
2021/04/13 08:13:25;;;;;;;10.38;6.65;;;;;;;;;;5031502;28;20764;-85
2021/04/13 08:15:52;;;;;;;8.98;6.95;;;;;;;;;;5021013;28;20378;-86
2021/04/13 08:18:34;;;;;;;9.68;6.30;;;;;;;;;;5020425;28;20428;-86
2021/04/13 08:21:14;;;;;;;9.77;6.43;;;;;;;;;;5020487;28;20459;-86
2021/04/13 08:23:40;;;;;;;10.48;5.82;;;;;;;;;;5010987;28;20421;-85
2021/04/13 08:26:12;;;;;;;11.55;6.80;;;;;;;;;;5023992;28;20365;-86
2021/04/13 08:28:38;;;;;;;8.85;6.63;;;;;;;;;;5030453;28;20369;-85
2021/04/13 08:34:01;;;;;;;9.00;6.30;;;;;;;;;;5029834;28;20786;-85
2021/04/13 08:36:31;;;;;;;9.98;6.60;;;;;;;;;;5029071;28;20400;-87
2021/04/13 08:39:08;;;;;;;8.85;6.40;;;;;;;;;;5025695;28;20878;-86
2021/04/13 08:41:45;;;;;;;12.02;6.15;;;;;;;;;;5023060;28;20414;-86
2021/04/13 08:44:33;;;;;;;10.13;6.10;;;;;;;;;;5021818;28;20406;-88
2021/04/13 08:47:04;;;;;;;7.90;6.32;;;;;;;;;;5029289;28;20475;-87
2021/04/13 08:49:43;;;;;;;10.40;5.75;;;;;;;;;;5030371;28;20378;-87
2021/04/13 08:52:14;;;;;;;11.48;6.05;;;;;;;;;;5031232;28;20377;-85
2021/04/13 08:54:42;;;;;;;8.57;5.32;;;;;;;;;;5029594;28;20444;-89
2021/04/13 08:57:25;;;;;;;11.83;6.40;;;;;;;;;;5019761;28;20385;-87
2021/04/13 09:00:01;;;;;;;12.55;5.93;;;;;;;;;;5017402;28;20871;-86
2021/04/13 09:02:35;;;;;;;10.88;5.90;;;;;;;;;;5028534;28;20390;-84
2021/04/13 09:05:03;;;;;;;10.07;5.90;;;;;;;;;;5024202;28;20727;-85
2021/04/13 09:07:31;;;;;;;12.20;6.30;;;;;;;;;;5030398;28;20378;-87
2021/04/13 09:10:16;;;;;;;9.48;5.47;;;;;;;;;;5031313;28;20929;-83
2021/04/13 09:12:44;;;;;;;12.40;5.70;;;;;;;;;;5031524;28;20382;-85
2021/04/13 09:15:13;;;;;;;10.55;5.85;;;;;;;;;;5032203;28;20891;-86
2021/04/13 09:17:58;;;;;;;11.50;6.68;;;;;;;;;;5030042;28;20369;-88
2021/04/13 09:20:42;;;;;;;13.30;6.95;;;;;;;;;;5029484;28;20361;-84
2021/04/13 09:23:10;;;;;;;12.02;6.40;;;;;;;;;;5028831;28;20377;-85
2021/04/13 09:25:44;;;;;;;11.70;6.43;;;;;;;;;;5029557;28;20426;-84
2021/04/13 09:28:10;;;;;;;9.48;5.68;;;;;;;;;;5030884;28;20369;-86
2021/04/13 09:30:38;;;;;;;13.55;6.45;;;;;;;;;;5030075;28;20504;-85
2021/04/13 09:33:06;;;;;;;10.90;6.30;;;;;;;;;;5030786;28;20380;-86
2021/04/13 09:35:51;;;;;;;9.30;5.97;;;;;;;;;;5034606;28;20941;-84
2021/04/13 09:38:20;;;;;;;9.88;5.35;;;;;;;;;;5027416;28;20452;-87
2021/04/13 09:40:52;;;;;;;10.02;5.53;;;;;;;;;;5036557;28;20473;-90
2021/04/13 09:43:18;;;;;;;9.18;4.68;;;;;;;;;;5028315;28;20404;-88
2021/04/13 09:45:52;;;;;;;9.07;4.95;;;;;;;;;;5029289;28;20712;-86
2021/04/13 09:48:25;;;;;;;10.88;5.13;;;;;;;;;;5028648;28;20388;-86
2021/04/13 09:51:09;;;;;;;8.43;5.20;;;;;;;;;;5024023;28;20480;-88
2021/04/13 09:53:47;;;;;;;8.52;4.70;;;;;;;;;;5028133;28;20404;-86
2021/04/13 09:56:31;;;;;;;10.95;4.47;;;;;;;;;;5026827;28;20472;-86
2021/04/13 09:59:04;;;;;;;8.73;4.72;;;;;;;;;;5027139;28;20366;-86
2021/04/13 10:01:39;;;;;;;8.05;4.30;;;;;;;;;;5029218;28;20385;-84
2021/04/13 10:04:12;;;;;;;10.00;4.38;;;;;;;;;;5029312;28;20380;-87
2021/04/13 10:06:39;;;;;;;10.70;4.57;;;;;;;;;;5026448;28;20935;-87
2021/04/13 10:09:08;;;;;;;9.95;4.30;;;;;;;;;;5029218;28;20397;-83
2021/04/13 10:11:46;;;;;;;10.77;4.68;;;;;;;;;;5026543;28;20439;-84
2021/04/13 10:14:30;;;;;;;9.63;4.78;;;;;;;;;;5026143;28;20393;-83
2021/04/13 10:16:56;;;;;;;8.82;4.35;;;;;;;;;;5032222;28;20365;-83
2021/04/13 10:19:38;;;;;;;9.23;4.13;;;;;;;;;;5033371;28;20384;-88
2021/04/13 10:22:14;;;;;;;9.68;3.90;;;;;;;;;;5030519;28;20376;-86
2021/04/13 10:25:01;;;;;;;7.97;4.18;;;;;;;;;;5031067;28;20377;-86
2021/04/13 10:27:34;;;;;;;8.98;4.57;;;;;;;;;;5032028;28;20369;-86
2021/04/13 10:30:00;;;;;;;8.25;3.80;;;;;;;;;;5033677;28;20409;-88
2021/04/13 10:32:33;;;;;;;8.13;3.63;;;;;;;;;;5034106;28;20402;-84
2021/04/13 10:35:18;;;;;;;9.35;3.85;;;;;;;;;;5034960;28;20401;-85
2021/04/13 10:38:01;;;;;;;10.00;3.60;;;;;;;;;;5031170;28;20456;-86
2021/04/13 10:40:36;;;;;;;11.07;3.75;;;;;;;;;;5030753;28;20821;-86
2021/04/13 10:43:13;;;;;;;9.57;3.30;;;;;;;;;;5030175;28;20385;-85
2021/04/13 10:46:05;;;;;;;12.18;3.78;;;;;;;;;;5030151;28;20445;-86
2021/04/13 10:49:02;;;;;;;11.52;3.40;;;;;;;;;;5015282;28;20427;-87
2021/04/13 10:51:36;;;;;;;8.48;3.35;;;;;;;;;;4978439;28;20392;-84
2021/04/13 10:54:21;;;;;;;10.43;3.25;;;;;;;;;;5014224;28;20395;-85
2021/04/13 10:57:06;;;;;;;9.10;3.35;;;;;;;;;;5012443;28;20367;-88
2021/04/13 10:59:40;;;;;;;7.90;3.27;;;;;;;;;;5025777;28;20382;-84
2021/04/13 11:02:25;;;;;;;8.77;3.58;;;;;;;;;;5031857;28;20362;-87
2021/04/13 11:05:11;;;;;;;9.50;3.10;;;;;;;;;;5031164;28;20381;-87
2021/04/13 11:07:37;;;;;;;13.20;3.83;;;;;;;;;;5022030;28;20381;-84
2021/04/13 11:10:22;;;;;;;9.18;3.72;;;;;;;;;;5031567;28;20400;-85
2021/04/13 11:13:07;;;;;;;7.97;3.30;;;;;;;;;;5027516;28;20634;-83
2021/04/13 11:15:44;;;;;;;11.02;4.10;;;;;;;;;;5016695;28;20477;-85
2021/04/13 11:18:19;;;;;;;7.82;2.80;;;;;;;;;;5011471;28;20911;-83
2021/04/13 11:20:45;;;;;;;10.57;3.20;;;;;;;;;;5012835;28;20394;-85
2021/04/13 11:23:31;;;;;;;9.13;2.85;;;;;;;;;;5010597;28;20375;-82
2021/04/13 11:26:09;;;;;;;7.05;3.22;;;;;;;;;;5014135;28;20371;-82
2021/04/13 11:28:54;;;;;;;9.00;3.60;;;;;;;;;;5026682;28;20386;-83
2021/04/13 11:31:23;;;;;;;10.30;3.42;;;;;;;;;;5030742;28;20374;-87
2021/04/13 11:33:49;;;;;;;6.35;3.28;;;;;;;;;;5030468;28;20459;-84
2021/04/13 11:36:21;;;;;;;8.15;2.90;;;;;;;;;;5032171;28;20365;-84
2021/04/13 11:39:13;;;;;;;9.60;3.13;;;;;;;;;;5033018;28;20372;-85
2021/04/13 11:41:39;;;;;;;7.53;2.90;;;;;;;;;;5030819;28;20871;-84
2021/04/13 11:44:10;;;;;;;7.23;3.00;;;;;;;;;;5030816;28;20389;-85
2021/04/13 11:46:50;;;;;;;9.73;3.83;;;;;;;;;;5032405;28;20836;-84
2021/04/13 11:49:19;;;;;;;7.22;3.17;;;;;;;;;;5032106;28;20370;-87
2021/04/13 11:51:56;;;;;;;8.82;3.38;;;;;;;;;;5030882;28;20875;-87
2021/04/13 11:54:47;;;;;;;7.17;2.77;;;;;;;;;;5031768;28;20385;-83
2021/04/13 11:57:21;;;;;;;7.38;2.88;;;;;;;;;;5030614;28;20377;-84
2021/04/13 12:00:26;;;;;;;8.45;2.80;;;;;;;;;;5033077;28;20366;-84
2021/04/13 12:03:21;;;;;;;7.43;2.60;;;;;;;;;;4990638;28;20392;-85
2021/04/13 12:05:50;;;;;;;9.45;2.90;;;;;;;;;;4975582;28;20794;-86
2021/04/13 12:08:31;;;;;;;9.77;3.05;;;;;;;;;;5013004;28;20460;-85
2021/04/13 12:11:02;;;;;;;7.10;2.40;;;;;;;;;;5030144;28;20867;-87
2021/04/13 12:13:51;;;;;;;8.32;2.95;;;;;;;;;;5031551;28;20870;-86
2021/04/13 12:16:43;;;;;;;6.70;2.38;;;;;;;;;;5026537;28;20383;-86
2021/04/13 12:19:14;;;;;;;9.13;3.30;;;;;;;;;;5030818;28;20373;-87
2021/04/13 12:21:41;;;;;;;10.48;2.65;;;;;;;;;;5031441;28;20891;-86
2021/04/13 12:24:37;;;;;;;8.10;2.78;;;;;;;;;;5033458;28;20397;-84
2021/04/13 12:27:22;;;;;;;7.68;2.70;;;;;;;;;;5025597;28;20400;-83
2021/04/13 12:29:48;;;;;;;6.78;2.45;;;;;;;;;;5029739;28;20375;-84
2021/04/13 12:32:14;;;;;;;9.25;2.63;;;;;;;;;;5020248;28;20359;-82
2021/04/13 12:34:47;;;;;;;9.02;2.85;;;;;;;;;;5028321;28;20396;-86
2021/04/13 12:37:32;;;;;;;6.88;2.60;;;;;;;;;;5039965;28;20392;-86
2021/04/13 12:40:00;;;;;;;7.47;2.80;;;;;;;;;;5029339;28;20378;-92
2021/04/13 12:42:41;;;;;;;8.82;2.70;;;;;;;;;;5044163;28;20381;-88
2021/04/13 12:45:19;;;;;;;10.05;3.65;;;;;;;;;;5030768;28;20369;-85
2021/04/13 12:47:46;;;;;;;8.60;2.97;;;;;;;;;;5035973;28;20370;-87
2021/04/13 12:50:15;;;;;;;6.78;2.72;;;;;;;;;;5035028;28;20369;-85
2021/04/13 12:52:41;;;;;;;10.07;3.63;;;;;;;;;;5037763;28;20401;-86
2021/04/13 12:55:17;;;;;;;9.15;3.10;;;;;;;;;;5040759;28;20409;-83
2021/04/13 12:57:50;;;;;;;8.75;2.78;;;;;;;;;;5020404;28;20375;-87
2021/04/13 13:00:17;;;;;;;7.90;2.83;;;;;;;;;;5018057;28;20948;-89
2021/04/13 13:02:46;;;;;;;12.25;3.17;;;;;;;;;;5031420;28;20373;-90
2021/04/13 13:05:24;;;;;;;7.25;3.10;;;;;;;;;;5030655;28;20374;-88
2021/04/13 13:08:00;;;;;;;8.55;2.90;;;;;;;;;;5030207;28;20366;-89
2021/04/13 13:10:30;;;;;;;9.00;3.00;;;;;;;;;;5021589;28;20389;-85
2021/04/13 13:13:02;;;;;;;14.38;3.63;;;;;;;;;;5021918;28;20417;-86
2021/04/13 13:15:33;;;;;;;9.75;2.60;;;;;;;;;;5020438;28;20399;-85
2021/04/13 13:18:14;;;;;;;5.00;2.57;;;;;;;;;;5025093;28;20973;-86
2021/04/13 13:20:43;;;;;;;7.97;2.65;;;;;;;;;;5020707;28;20457;-89
2021/04/13 13:23:13;;;;;;;8.63;2.63;;;;;;;;;;5021060;28;20420;-89
2021/04/13 13:25:43;;;;;;;10.90;2.63;;;;;;;;;;5020206;28;20474;-88
2021/04/13 13:28:20;;;;;;;8.02;2.45;;;;;;;;;;5023824;28;20385;-84
2021/04/13 13:30:47;;;;;;;6.80;2.47;;;;;;;;;;5027041;28;20389;-87
2021/04/13 13:33:15;;;;;;;6.65;2.60;;;;;;;;;;5029008;28;20385;-86
2021/04/13 13:35:41;;;;;;;9.95;2.83;;;;;;;;;;5028741;28;20461;-85
2021/04/13 13:38:07;;;;;;;7.70;2.60;;;;;;;;;;5013593;28;20383;-85
2021/04/13 13:40:35;;;;;;;8.38;3.03;;;;;;;;;;5012986;28;20378;-85
2021/04/13 13:43:05;;;;;;;7.15;2.72;;;;;;;;;;5030226;28;20384;-84
2021/04/13 13:45:34;;;;;;;9.98;3.10;;;;;;;;;;5030007;28;20376;-86
2021/04/13 13:48:00;;;;;;;6.40;2.60;;;;;;;;;;5032853;28;20408;-85
2021/04/13 13:50:36;;;;;;;7.18;2.60;;;;;;;;;;5036290;28;20860;-87
2021/04/13 13:53:04;;;;;;;6.65;2.50;;;;;;;;;;5014110;28;20371;-86
2021/04/13 13:55:36;;;;;;;7.10;2.70;;;;;;;;;;5026133;28;20428;-86
2021/04/13 13:58:07;;;;;;;7.93;2.67;;;;;;;;;;5033645;28;20389;-88
2021/04/13 14:00:50;;;;;;;6.93;2.47;;;;;;;;;;5033907;28;20385;-85
2021/04/13 14:03:19;;;;;;;9.18;2.55;;;;;;;;;;5018474;28;20517;-86
2021/04/13 14:05:53;;;;;;;8.98;2.65;;;;;;;;;;5022400;28;20378;-85
2021/04/13 14:08:22;;;;;;;6.85;2.60;;;;;;;;;;5014056;28;20387;-88
2021/04/13 14:10:48;;;;;;;7.45;2.72;;;;;;;;;;5018430;28;20369;-85
2021/04/13 14:13:20;;;;;;;7.40;2.50;;;;;;;;;;5033050;28;20448;-86
2021/04/13 14:15:50;;;;;;;11.07;2.90;;;;;;;;;;5034065;28;21230;-86
2021/04/13 14:18:23;;;;;;;9.93;2.90;;;;;;;;;;5014388;28;20363;-84
2021/04/13 14:21:21;;;;;;;6.80;2.78;;;;;;;;;;5029708;28;20452;-87
2021/04/13 14:23:49;;;;;;;6.23;2.33;;;;;;;;;;5000801;28;20393;-85
2021/04/13 14:26:28;;;;;;;6.72;2.35;;;;;;;;;;5030095;28;20869;-85
2021/04/13 14:29:08;;;;;;;8.00;2.65;;;;;;;;;;5013513;28;20820;-85
2021/04/13 14:31:34;;;;;;;8.82;2.58;;;;;;;;;;5025377;28;20922;-87
2021/04/13 14:34:01;;;;;;;6.73;2.53;;;;;;;;;;5033818;28;20408;-86
2021/04/13 14:36:28;;;;;;;7.03;2.70;;;;;;;;;;5025295;28;20441;-87
2021/04/13 14:38:55;;;;;;;7.07;2.20;;;;;;;;;;5013769;28;20363;-85
2021/04/13 14:41:21;;;;;;;7.10;2.30;;;;;;;;;;5018704;28;20732;-86
2021/04/13 14:43:47;;;;;;;6.25;2.17;;;;;;;;;;5033097;28;20436;-86
2021/04/13 14:46:13;;;;;;;5.93;2.00;;;;;;;;;;5032759;28;20788;-84
2021/04/13 14:48:39;;;;;;;8.73;2.33;;;;;;;;;;5032397;28;20697;-84
2021/04/13 14:51:05;;;;;;;7.63;2.30;;;;;;;;;;5031683;28;20374;-84
2021/04/13 14:53:31;;;;;;;7.43;2.20;;;;;;;;;;5031968;28;20365;-84
2021/04/13 14:55:57;;;;;;;7.15;2.28;;;;;;;;;;5015454;28;20901;-84
2021/04/13 14:58:24;;;;;;;8.10;2.67;;;;;;;;;;5020933;28;20457;-87
2021/04/13 15:00:50;;;;;;;7.07;2.22;;;;;;;;;;5032831;28;20720;-85
2021/04/13 15:03:16;;;;;;;7.68;2.50;;;;;;;;;;5033036;28;20369;-84
2021/04/13 15:05:45;;;;;;;7.40;2.83;;;;;;;;;;5032017;28;20377;-88
2021/04/13 15:08:13;;;;;;;6.40;2.38;;;;;;;;;;5032358;28;20381;-83